createdAt,value
2018-07-25T00:00:16.115Z,28.58
2018-07-25T00:01:19.992Z,28.58
2018-07-25T00:02:23.410Z,28.58
2018-07-25T00:03:27.016Z,28.58
2018-07-25T00:04:30.469Z,28.58
2018-07-25T00:05:33.866Z,28.59
2018-07-25T00:06:37.280Z,28.57
2018-07-25T00:07:40.712Z,28.58
2018-07-25T00:08:44.120Z,28.58
2018-07-25T00:09:47.535Z,28.58
2018-07-25T00:10:54.540Z,28.58
2018-07-25T00:11:57.968Z,28.58
2018-07-25T00:13:01.368Z,28.58
2018-07-25T00:14:04.859Z,28.59
2018-07-25T00:15:08.292Z,28.57
2018-07-25T00:16:11.688Z,28.57
2018-07-25T00:17:15.103Z,28.58
2018-07-25T00:18:18.519Z,28.58
2018-07-25T00:19:21.924Z,28.58
2018-07-25T00:20:25.356Z,28.57
2018-07-25T00:21:28.767Z,28.58
2018-07-25T00:22:32.193Z,28.59
2018-07-25T00:23:35.616Z,28.58
2018-07-25T00:24:39.491Z,28.57
2018-07-25T00:25:42.877Z,28.58
2018-07-25T00:26:46.277Z,28.57
2018-07-25T00:27:49.666Z,28.58
2018-07-25T00:28:53.053Z,28.58
2018-07-25T00:29:56.460Z,28.59
2018-07-25T00:30:59.865Z,28.59
2018-07-25T00:32:03.287Z,28.58
2018-07-25T00:33:06.724Z,28.59
2018-07-25T00:34:10.108Z,28.59
2018-07-25T00:35:13.512Z,28.59
2018-07-25T00:36:17.008Z,28.58
2018-07-25T00:37:20.391Z,28.60
2018-07-25T00:38:23.782Z,28.59
2018-07-25T00:39:27.142Z,28.58
2018-07-25T00:40:30.567Z,28.59
2018-07-25T00:41:33.981Z,28.59
2018-07-25T00:42:37.399Z,28.60
2018-07-25T00:43:40.834Z,28.59
2018-07-25T00:44:44.248Z,28.59
2018-07-25T00:45:47.629Z,28.58
2018-07-25T00:46:51.020Z,28.58
2018-07-25T00:47:54.402Z,28.59
2018-07-25T00:48:57.796Z,28.58
2018-07-25T00:50:01.173Z,28.59
2018-07-25T00:51:04.578Z,28.59
2018-07-25T00:52:07.978Z,28.59
2018-07-25T00:53:11.390Z,28.60
2018-07-25T00:54:14.808Z,28.60
2018-07-25T00:55:18.187Z,28.59
2018-07-25T00:56:21.644Z,28.59
2018-07-25T00:57:25.036Z,28.60
2018-07-25T00:58:28.420Z,28.59
2018-07-25T00:59:31.829Z,28.59
2018-07-25T01:00:35.222Z,28.59
2018-07-25T01:01:38.641Z,28.59
2018-07-25T01:02:42.135Z,28.59
2018-07-25T01:03:45.542Z,28.60
2018-07-25T01:04:48.928Z,28.60
2018-07-25T01:05:52.368Z,28.59
2018-07-25T01:06:55.796Z,28.60
2018-07-25T01:07:59.189Z,28.60
2018-07-25T01:09:02.589Z,28.60
2018-07-25T01:10:06.088Z,28.60
2018-07-25T01:11:09.704Z,28.60
2018-07-25T01:12:13.131Z,28.60
2018-07-25T01:13:16.550Z,28.60
2018-07-25T01:14:19.989Z,28.61
2018-07-25T01:15:23.655Z,28.60
2018-07-25T01:16:27.039Z,28.61
2018-07-25T01:17:30.473Z,28.60
2018-07-25T01:18:33.938Z,28.61
2018-07-25T01:19:37.400Z,28.61
2018-07-25T01:20:40.793Z,28.61
2018-07-25T01:21:44.212Z,28.62
2018-07-25T01:22:47.626Z,28.61
2018-07-25T01:23:51.006Z,28.61
2018-07-25T01:24:54.422Z,28.61
2018-07-25T01:25:57.848Z,28.63
2018-07-25T01:27:01.248Z,28.63
2018-07-25T01:28:04.667Z,28.63
2018-07-25T01:29:08.068Z,28.63
2018-07-25T01:30:11.513Z,28.63
2018-07-25T01:31:14.885Z,28.64
2018-07-25T01:32:18.302Z,28.64
2018-07-25T01:33:21.728Z,28.64
2018-07-25T01:34:25.094Z,28.64
2018-07-25T01:35:28.476Z,28.64
2018-07-25T01:36:31.864Z,28.64
2018-07-25T01:37:35.260Z,28.63
2018-07-25T01:38:38.660Z,28.63
2018-07-25T01:39:42.048Z,28.63
2018-07-25T01:40:45.462Z,28.64
2018-07-25T01:41:48.924Z,28.64
2018-07-25T01:42:52.412Z,28.63
2018-07-25T01:43:55.802Z,28.63
2018-07-25T01:44:59.214Z,28.64
2018-07-25T01:46:02.596Z,28.63
2018-07-25T01:47:06.588Z,28.64
2018-07-25T01:48:10.072Z,28.64
2018-07-25T01:49:13.476Z,28.64
2018-07-25T01:50:16.874Z,28.64
2018-07-25T01:51:20.247Z,28.65
2018-07-25T01:52:23.654Z,28.65
2018-07-25T01:53:27.067Z,28.66
2018-07-25T01:54:30.478Z,28.65
2018-07-25T01:55:33.872Z,28.65
2018-07-25T01:56:37.245Z,28.67
2018-07-25T01:57:40.621Z,28.65
2018-07-25T01:58:43.993Z,28.66
2018-07-25T01:59:47.391Z,28.67
2018-07-25T02:00:50.804Z,28.66
2018-07-25T02:01:54.184Z,28.67
2018-07-25T02:02:57.570Z,28.67
2018-07-25T02:04:00.972Z,28.67
2018-07-25T02:05:04.413Z,28.67
2018-07-25T02:06:07.835Z,28.67
2018-07-25T02:07:11.316Z,28.66
2018-07-25T02:08:14.915Z,28.67
2018-07-25T02:09:18.273Z,28.66
2018-07-25T02:10:21.692Z,28.66
2018-07-25T02:11:25.075Z,28.67
2018-07-25T02:12:28.486Z,28.67
2018-07-25T02:13:31.854Z,28.66
2018-07-25T02:14:35.221Z,28.67
2018-07-25T02:15:38.655Z,28.66
2018-07-25T02:16:42.048Z,28.65
2018-07-25T02:17:45.435Z,28.66
2018-07-25T02:18:48.816Z,28.67
2018-07-25T02:19:52.212Z,28.67
2018-07-25T02:20:55.623Z,28.67
2018-07-25T02:21:59.012Z,28.67
2018-07-25T02:23:02.428Z,28.66
2018-07-25T02:24:05.895Z,28.66
2018-07-25T02:25:09.351Z,28.66
2018-07-25T02:26:12.751Z,28.65
2018-07-25T02:27:16.152Z,28.65
2018-07-25T02:28:19.536Z,28.64
2018-07-25T02:29:22.912Z,28.65
2018-07-25T02:30:26.641Z,28.64
2018-07-25T02:31:30.048Z,28.65
2018-07-25T02:32:33.459Z,28.65
2018-07-25T02:33:42.260Z,28.64
2018-07-25T02:34:45.669Z,28.65
2018-07-25T02:35:49.060Z,28.65
2018-07-25T02:36:53.058Z,28.64
2018-07-25T02:37:56.448Z,28.64
2018-07-25T02:38:59.825Z,28.63
2018-07-25T02:40:03.420Z,28.63
2018-07-25T02:41:06.932Z,28.63
2018-07-25T02:42:10.349Z,28.63
2018-07-25T02:43:13.752Z,28.64
2018-07-25T02:44:17.114Z,28.65
2018-07-25T02:45:20.543Z,28.65
2018-07-25T02:46:23.926Z,28.66
2018-07-25T02:47:27.307Z,28.66
2018-07-25T02:48:30.697Z,28.66
2018-07-25T02:49:34.075Z,28.66
2018-07-25T02:50:37.472Z,28.66
2018-07-25T02:51:40.892Z,28.65
2018-07-25T02:52:44.278Z,28.65
2018-07-25T02:53:47.680Z,28.65
2018-07-25T02:54:51.068Z,28.65
2018-07-25T02:55:54.500Z,28.64
2018-07-25T02:56:57.961Z,28.65
2018-07-25T02:58:01.371Z,28.65
2018-07-25T02:59:05.257Z,28.65
2018-07-25T03:00:08.711Z,28.66
2018-07-25T03:01:12.105Z,28.66
2018-07-25T03:02:15.505Z,28.66
2018-07-25T03:03:18.926Z,28.66
2018-07-25T03:04:22.306Z,28.67
2018-07-25T03:05:25.744Z,28.66
2018-07-25T03:06:29.205Z,28.67
2018-07-25T03:07:32.820Z,28.67
2018-07-25T03:08:36.218Z,28.66
2018-07-25T03:09:39.618Z,28.67
2018-07-25T03:10:47.533Z,28.67
2018-07-25T03:11:50.987Z,28.67
2018-07-25T03:12:54.423Z,28.66
2018-07-25T03:13:57.817Z,28.66
2018-07-25T03:15:01.202Z,28.66
2018-07-25T03:16:08.787Z,28.67
2018-07-25T03:17:12.217Z,28.66
2018-07-25T03:18:15.636Z,28.66
2018-07-25T03:19:19.034Z,28.66
2018-07-25T03:20:22.448Z,28.66
2018-07-25T03:21:25.887Z,28.66
2018-07-25T03:22:29.284Z,28.66
2018-07-25T03:23:35.773Z,28.66
2018-07-25T03:24:39.148Z,28.65
2018-07-25T03:25:42.536Z,28.66
2018-07-25T03:26:45.942Z,28.67
2018-07-25T03:27:49.336Z,28.65
2018-07-25T03:28:52.713Z,28.65
2018-07-25T03:29:56.123Z,28.65
2018-07-25T03:31:00.140Z,28.65
2018-07-25T03:32:03.541Z,28.65
2018-07-25T03:33:07.119Z,28.65
2018-07-25T03:34:10.536Z,28.64
2018-07-25T03:35:13.944Z,28.64
2018-07-25T03:36:17.325Z,28.65
2018-07-25T03:37:20.786Z,28.66
2018-07-25T03:38:24.122Z,28.66
2018-07-25T03:39:27.524Z,28.66
2018-07-25T03:40:30.940Z,28.67
2018-07-25T03:41:34.329Z,28.66
2018-07-25T03:42:37.799Z,28.67
2018-07-25T03:43:41.182Z,28.66
2018-07-25T03:44:44.576Z,28.65
2018-07-25T03:45:47.957Z,28.65
2018-07-25T03:46:51.355Z,28.65
2018-07-25T03:47:54.736Z,28.65
2018-07-25T03:48:58.120Z,28.65
2018-07-25T03:50:01.500Z,28.65
2018-07-25T03:51:04.925Z,28.66
2018-07-25T03:52:08.360Z,28.65
2018-07-25T03:53:11.748Z,28.65
2018-07-25T03:54:15.144Z,28.65
2018-07-25T03:55:18.573Z,28.67
2018-07-25T03:56:21.967Z,28.63
2018-07-25T03:57:25.380Z,28.61
2018-07-25T03:58:28.766Z,28.56
2018-07-25T03:59:32.237Z,28.48
2018-07-25T04:00:35.894Z,28.40
2018-07-25T04:01:39.330Z,28.32
2018-07-25T04:02:42.843Z,28.23
2018-07-25T04:03:46.243Z,28.15
2018-07-25T04:04:49.659Z,28.08
2018-07-25T04:05:53.056Z,28.01
2018-07-25T04:06:56.454Z,27.91
2018-07-25T04:07:59.865Z,27.82
2018-07-25T04:09:03.467Z,27.78
2018-07-25T04:10:08.135Z,27.76
2018-07-25T04:11:11.579Z,27.72
2018-07-25T04:12:14.964Z,27.68
2018-07-25T04:13:19.482Z,27.61
2018-07-25T04:14:22.889Z,27.56
2018-07-25T04:15:26.334Z,27.51
2018-07-25T04:16:29.766Z,27.44
2018-07-25T04:17:38.576Z,27.42
2018-07-25T04:18:41.976Z,27.38
2018-07-25T04:19:45.609Z,27.36
2018-07-25T04:20:49.296Z,27.30
2018-07-25T04:21:52.868Z,27.24
2018-07-25T04:22:56.284Z,27.24
2018-07-25T04:23:59.725Z,27.22
2018-07-25T04:25:03.391Z,27.20
2018-07-25T04:26:06.868Z,27.17
2018-07-25T04:27:10.848Z,27.16
2018-07-25T04:28:14.254Z,27.12
2018-07-25T04:29:17.684Z,27.12
2018-07-25T04:30:21.103Z,27.10
2018-07-25T04:31:25.230Z,27.06
2018-07-25T04:32:28.770Z,26.99
2018-07-25T04:33:32.174Z,26.96
2018-07-25T04:34:35.789Z,26.95
2018-07-25T04:35:39.197Z,26.90
2018-07-25T04:36:42.681Z,26.86
2018-07-25T04:37:46.126Z,26.84
2018-07-25T04:38:49.532Z,26.82
2018-07-25T04:39:53.556Z,26.81
2018-07-25T04:40:56.988Z,26.79
2018-07-25T04:42:00.428Z,26.79
2018-07-25T04:43:04.086Z,26.72
2018-07-25T04:44:07.544Z,26.71
2018-07-25T04:45:11.640Z,26.72
2018-07-25T04:46:15.427Z,26.74
2018-07-25T04:47:18.772Z,26.73
2018-07-25T04:48:22.239Z,26.72
2018-07-25T04:49:25.945Z,26.72
2018-07-25T04:50:29.337Z,26.74
2018-07-25T04:51:32.788Z,26.77
2018-07-25T04:52:36.607Z,26.80
2018-07-25T04:53:40.018Z,26.84
2018-07-25T04:54:43.778Z,26.87
2018-07-25T04:55:47.661Z,26.91
2018-07-25T04:56:51.076Z,26.95
2018-07-25T04:57:54.494Z,26.98
2018-07-25T04:58:57.951Z,26.98
2018-07-25T05:00:01.364Z,26.99
2018-07-25T05:01:04.928Z,26.93
2018-07-25T05:02:08.743Z,26.92
2018-07-25T05:03:12.168Z,26.91
2018-07-25T05:04:15.600Z,26.89
2018-07-25T05:05:19.020Z,26.89
2018-07-25T05:06:22.397Z,26.84
2018-07-25T05:07:26.065Z,26.84
2018-07-25T05:08:29.550Z,26.83
2018-07-25T05:09:33.089Z,26.82
2018-07-25T05:10:37.481Z,26.80
2018-07-25T05:11:40.856Z,26.73
2018-07-25T05:12:44.256Z,26.71
2018-07-25T05:13:47.692Z,26.70
2018-07-25T05:14:51.134Z,26.71
2018-07-25T05:15:54.532Z,26.69
2018-07-25T05:16:57.910Z,26.70
2018-07-25T05:18:01.309Z,26.67
2018-07-25T05:19:04.986Z,26.64
2018-07-25T05:20:08.410Z,26.62
2018-07-25T05:21:11.814Z,26.59
2018-07-25T05:22:15.246Z,26.58
2018-07-25T05:23:18.698Z,26.59
2018-07-25T05:24:22.094Z,26.55
2018-07-25T05:25:25.481Z,26.58
2018-07-25T05:26:28.886Z,26.58
2018-07-25T05:27:32.308Z,26.56
2018-07-25T05:28:35.756Z,26.52
2018-07-25T05:29:39.162Z,26.47
2018-07-25T05:30:42.582Z,26.44
2018-07-25T05:31:47.069Z,26.39
2018-07-25T05:32:50.485Z,26.36
2018-07-25T05:33:53.969Z,26.32
2018-07-25T05:34:57.357Z,26.31
2018-07-25T05:36:00.785Z,26.29
2018-07-25T05:37:04.447Z,26.29
2018-07-25T05:38:08.023Z,26.24
2018-07-25T05:39:13.002Z,26.19
2018-07-25T05:40:16.425Z,26.20
2018-07-25T05:41:19.952Z,26.17
2018-07-25T05:42:23.368Z,26.13
2018-07-25T05:43:26.793Z,26.13
2018-07-25T05:44:30.449Z,26.14
2018-07-25T05:45:33.991Z,26.17
2018-07-25T05:46:37.550Z,26.11
2018-07-25T05:47:40.935Z,26.09
2018-07-25T05:48:44.409Z,26.05
2018-07-25T05:49:47.841Z,26.10
2018-07-25T05:50:51.258Z,26.09
2018-07-25T05:51:54.694Z,26.08
2018-07-25T05:52:58.710Z,26.08
2018-07-25T05:54:02.249Z,26.07
2018-07-25T05:55:05.684Z,26.05
2018-07-25T05:56:09.108Z,26.01
2018-07-25T05:57:12.523Z,26.00
2018-07-25T05:58:15.954Z,26.04
2018-07-25T05:59:19.333Z,26.10
2018-07-25T06:00:22.760Z,26.12
2018-07-25T06:01:26.647Z,26.19
2018-07-25T06:02:30.056Z,26.18
2018-07-25T06:03:33.611Z,26.25
2018-07-25T06:04:36.970Z,26.26
2018-07-25T06:05:40.432Z,26.26
2018-07-25T06:06:43.848Z,26.26
2018-07-25T06:07:47.248Z,26.33
2018-07-25T06:08:50.682Z,26.33
2018-07-25T06:09:54.086Z,26.36
2018-07-25T06:10:57.550Z,26.38
2018-07-25T06:12:01.002Z,26.39
2018-07-25T06:13:04.560Z,26.41
2018-07-25T06:14:08.195Z,26.41
2018-07-25T06:15:11.604Z,26.43
2018-07-25T06:16:14.991Z,26.47
2018-07-25T06:17:18.435Z,26.47
2018-07-25T06:18:21.889Z,26.48
2018-07-25T06:19:25.352Z,26.50
2018-07-25T06:20:28.861Z,26.51
2018-07-25T06:21:32.245Z,26.52
2018-07-25T06:22:35.690Z,26.53
2018-07-25T06:23:39.153Z,26.55
2018-07-25T06:24:42.561Z,26.57
2018-07-25T06:25:46.012Z,26.55
2018-07-25T06:26:49.426Z,26.56
2018-07-25T06:27:53.000Z,26.56
2018-07-25T06:28:56.384Z,26.55
2018-07-25T06:29:59.776Z,26.57
2018-07-25T06:31:03.224Z,26.58
2018-07-25T06:32:06.792Z,26.58
2018-07-25T06:33:10.201Z,26.55
2018-07-25T06:34:14.663Z,26.53
2018-07-25T06:35:18.154Z,26.53
2018-07-25T06:36:21.628Z,26.55
2018-07-25T06:37:25.705Z,26.55
2018-07-25T06:38:29.732Z,26.56
2018-07-25T06:39:33.395Z,26.56
2018-07-25T06:40:37.178Z,26.58
2018-07-25T06:41:40.951Z,26.59
2018-07-25T06:42:44.747Z,26.63
2018-07-25T06:43:48.252Z,26.62
2018-07-25T06:44:52.322Z,26.64
2018-07-25T06:45:55.911Z,26.66
2018-07-25T06:46:59.388Z,26.66
2018-07-25T06:48:02.850Z,26.67
2018-07-25T06:56:53.570Z,26.68
2018-07-25T06:57:57.043Z,26.47
2018-07-25T06:59:04.386Z,26.44
2018-07-25T07:00:08.263Z,26.47
2018-07-25T07:01:11.754Z,26.47
2018-07-25T07:02:15.162Z,26.46
2018-07-25T07:03:18.618Z,26.41
2018-07-25T07:04:22.074Z,26.40
2018-07-25T07:05:25.468Z,26.39
2018-07-25T07:06:28.917Z,26.44
2018-07-25T07:07:32.502Z,26.46
2018-07-25T07:08:35.894Z,26.48
2018-07-25T07:09:39.279Z,26.53
2018-07-25T07:10:42.713Z,26.56
2018-07-25T07:11:46.122Z,26.59
2018-07-25T07:12:49.536Z,26.65
2018-07-25T07:13:53.131Z,26.69
2018-07-25T07:14:56.548Z,26.73
2018-07-25T07:15:59.950Z,26.77
2018-07-25T07:17:03.400Z,26.80
2018-07-25T07:18:06.827Z,26.84
2018-07-25T07:19:10.223Z,26.86
2018-07-25T07:20:13.661Z,26.89
2018-07-25T07:21:17.096Z,26.93
2018-07-25T07:22:20.595Z,26.95
2018-07-25T07:23:23.988Z,26.96
2018-07-25T07:24:27.554Z,26.99
2018-07-25T07:25:30.972Z,27.00
2018-07-25T07:26:34.434Z,27.03
2018-07-25T07:27:37.907Z,27.05
2018-07-25T07:28:41.330Z,27.06
2018-07-25T07:29:44.733Z,27.08
2018-07-25T07:30:48.113Z,27.09
2018-07-25T07:31:51.570Z,27.10
2018-07-25T07:32:54.974Z,27.12
2018-07-25T07:33:58.376Z,27.12
2018-07-25T07:35:01.849Z,27.14
2018-07-25T07:36:05.299Z,27.15
2018-07-25T07:37:08.836Z,27.16
2018-07-25T07:38:12.241Z,27.17
2018-07-25T07:39:15.630Z,27.18
2018-07-25T07:40:19.016Z,27.19
2018-07-25T07:41:22.460Z,27.18
2018-07-25T07:42:25.890Z,27.20
2018-07-25T07:43:29.311Z,27.21
2018-07-25T07:44:32.846Z,27.23
2018-07-25T07:45:36.326Z,27.23
2018-07-25T07:46:39.750Z,27.24
2018-07-25T07:47:43.259Z,27.26
2018-07-25T07:48:46.839Z,27.26
2018-07-25T07:49:51.353Z,27.26
2018-07-25T07:50:54.759Z,27.26
2018-07-25T07:51:58.200Z,27.28
2018-07-25T07:53:01.651Z,27.28
2018-07-25T07:54:05.150Z,27.30
2018-07-25T07:55:08.623Z,27.31
2018-07-25T07:56:12.030Z,27.37
2018-07-25T07:57:15.459Z,27.37
2018-07-25T07:58:18.919Z,27.36
2018-07-25T07:59:22.352Z,27.36
2018-07-25T08:00:25.735Z,27.36
2018-07-25T08:01:29.166Z,27.36
2018-07-25T08:02:32.586Z,27.35
2018-07-25T08:03:35.990Z,27.35
2018-07-25T08:04:39.423Z,27.36
2018-07-25T08:05:42.838Z,27.35
2018-07-25T08:06:46.313Z,27.35
2018-07-25T08:07:49.709Z,27.36
2018-07-25T08:08:53.114Z,27.36
2018-07-25T08:09:56.508Z,27.36
2018-07-25T08:10:59.928Z,27.36
2018-07-25T08:12:03.350Z,27.36
2018-07-25T08:13:06.770Z,27.35
2018-07-25T08:14:10.339Z,27.36
2018-07-25T08:15:13.835Z,27.36
2018-07-25T08:16:17.892Z,27.36
2018-07-25T08:17:21.312Z,27.36
2018-07-25T08:18:24.690Z,27.37
2018-07-25T08:19:28.104Z,27.36
2018-07-25T08:20:31.569Z,27.37
2018-07-25T08:21:34.959Z,27.37
2018-07-25T08:22:38.411Z,27.37
2018-07-25T08:23:42.769Z,27.39
2018-07-25T08:24:46.227Z,27.37
2018-07-25T08:25:50.376Z,27.38
2018-07-25T08:26:54.208Z,27.38
2018-07-25T08:27:57.854Z,27.39
2018-07-25T08:29:01.584Z,27.39
2018-07-25T08:30:05.986Z,27.40
2018-07-25T08:31:09.397Z,27.41
2018-07-25T08:32:15.000Z,27.41
2018-07-25T08:33:19.951Z,27.42
2018-07-25T08:34:24.721Z,27.42
2018-07-25T08:35:29.206Z,27.42
2018-07-25T08:36:33.706Z,27.43
2018-07-25T08:37:38.045Z,27.43
2018-07-25T08:38:43.566Z,27.44
2018-07-25T08:39:48.119Z,27.43
2018-07-25T08:40:51.575Z,27.44
2018-07-25T08:41:55.001Z,27.44
2018-07-25T08:42:58.445Z,27.44
2018-07-25T08:44:01.836Z,27.45
2018-07-25T08:45:06.200Z,27.45
2018-07-25T08:46:10.798Z,27.44
2018-07-25T08:47:14.212Z,27.45
2018-07-25T08:48:17.743Z,27.45
2018-07-25T08:49:21.153Z,27.45
2018-07-25T08:50:24.726Z,27.45
2018-07-25T08:51:28.141Z,27.44
2018-07-25T08:52:31.692Z,27.45
2018-07-25T08:53:35.500Z,27.45
2018-07-25T08:54:39.157Z,27.46
2018-07-25T08:55:43.249Z,27.46
2018-07-25T08:56:46.708Z,27.47
2018-07-25T08:57:50.157Z,27.46
2018-07-25T08:58:53.571Z,27.47
2018-07-25T08:59:57.060Z,27.47
2018-07-25T09:01:01.017Z,27.47
2018-07-25T09:02:05.207Z,27.47
2018-07-25T09:03:08.727Z,27.49
2018-07-25T09:04:12.398Z,27.49
2018-07-25T09:05:15.800Z,27.48
2018-07-25T09:06:19.491Z,27.51
2018-07-25T09:07:22.911Z,27.51
2018-07-25T09:08:26.317Z,27.52
2018-07-25T09:09:29.838Z,27.52
2018-07-25T09:10:33.461Z,27.53
2018-07-25T09:11:36.973Z,27.54
2018-07-25T09:12:40.442Z,27.53
2018-07-25T09:13:43.914Z,27.54
2018-07-25T09:14:47.300Z,27.54
2018-07-25T09:15:50.720Z,27.55
2018-07-25T09:16:54.146Z,27.54
2018-07-25T09:17:57.584Z,27.56
2018-07-25T09:19:01.344Z,27.56
2018-07-25T09:20:05.517Z,27.56
2018-07-25T09:21:09.082Z,27.58
2018-07-25T09:22:12.515Z,27.59
2018-07-25T09:23:15.916Z,27.59
2018-07-25T09:24:19.497Z,27.62
2018-07-25T09:25:22.918Z,27.62
2018-07-25T09:26:26.378Z,27.63
2018-07-25T09:27:29.779Z,27.63
2018-07-25T09:28:33.207Z,27.65
2018-07-25T09:29:36.645Z,27.66
2018-07-25T09:30:43.657Z,27.66
2018-07-25T09:31:47.074Z,27.67
2018-07-25T09:32:51.776Z,27.67
2018-07-25T09:34:06.208Z,27.68
2018-07-25T09:35:09.753Z,27.68
2018-07-25T09:36:13.939Z,27.69
2018-07-25T09:37:17.492Z,27.69
2018-07-25T09:38:21.036Z,27.69
2018-07-25T09:39:24.701Z,27.70
2018-07-25T09:40:28.166Z,27.70
2018-07-25T09:41:31.607Z,27.70
2018-07-25T09:42:35.072Z,27.70
2018-07-25T09:43:38.597Z,27.71
2018-07-25T09:44:42.047Z,27.70
2018-07-25T09:45:45.495Z,27.70
2018-07-25T09:46:48.915Z,27.71
2018-07-25T09:47:52.476Z,27.71
2018-07-25T09:48:55.926Z,27.72
2018-07-25T09:49:59.360Z,27.72
2018-07-25T09:51:02.912Z,27.72
2018-07-25T09:52:06.355Z,27.72
2018-07-25T09:53:09.889Z,27.72
2018-07-25T09:54:13.294Z,27.72
2018-07-25T09:55:16.795Z,27.72
2018-07-25T09:56:20.377Z,27.71
2018-07-25T09:57:24.027Z,27.72
2018-07-25T09:58:27.530Z,27.72
2018-07-25T09:59:30.956Z,27.72
2018-07-25T10:00:49.933Z,27.72
2018-07-25T10:01:53.363Z,27.73
2018-07-25T10:02:57.037Z,27.73
2018-07-25T10:04:00.472Z,27.76
2018-07-25T10:05:04.067Z,27.76
2018-07-25T10:06:07.660Z,27.74
2018-07-25T10:07:11.080Z,27.74
2018-07-25T10:08:15.150Z,27.75
2018-07-25T10:09:18.598Z,27.74
2018-07-25T10:10:22.065Z,27.73
2018-07-25T10:11:25.540Z,27.80
2018-07-25T10:12:29.020Z,27.79
2018-07-25T10:13:32.540Z,27.79
2018-07-25T10:14:36.028Z,27.79
2018-07-25T10:15:39.454Z,27.80
2018-07-25T10:16:42.911Z,27.84
2018-07-25T10:17:46.334Z,27.84
2018-07-25T10:18:49.768Z,27.83
2018-07-25T10:19:53.170Z,27.83
2018-07-25T10:20:56.668Z,27.85
2018-07-25T10:22:00.062Z,27.85
2018-07-25T10:23:03.674Z,27.83
2018-07-25T10:24:07.311Z,27.83
2018-07-25T10:25:10.884Z,27.83
2018-07-25T10:26:14.371Z,27.82
2018-07-25T10:27:17.817Z,27.82
2018-07-25T10:28:21.230Z,27.81
2018-07-25T10:29:24.884Z,27.81
2018-07-25T10:30:28.269Z,27.80
2018-07-25T10:31:31.681Z,27.81
2018-07-25T10:32:35.175Z,27.79
2018-07-25T10:33:38.615Z,27.81
2018-07-25T10:34:41.987Z,27.80
2018-07-25T10:35:46.089Z,27.80
2018-07-25T10:36:49.835Z,27.80
2018-07-25T10:37:53.508Z,27.80
2018-07-25T10:38:56.996Z,27.80
2018-07-25T10:40:00.427Z,27.80
2018-07-25T10:41:03.894Z,27.80
2018-07-25T10:42:07.656Z,27.80
2018-07-25T10:43:11.075Z,27.80
2018-07-25T10:44:14.540Z,27.80
2018-07-25T10:45:17.971Z,27.80
2018-07-25T10:46:21.502Z,27.81
2018-07-25T10:47:24.916Z,27.81
2018-07-25T10:48:28.352Z,27.81
2018-07-25T10:49:31.782Z,27.81
2018-07-25T10:50:35.215Z,27.81
2018-07-25T10:51:38.722Z,27.81
2018-07-25T10:52:42.148Z,27.81
2018-07-25T10:53:45.823Z,27.82
2018-07-25T10:54:49.389Z,27.82
2018-07-25T10:55:52.821Z,27.82
2018-07-25T10:56:56.233Z,27.82
2018-07-25T10:57:59.856Z,27.82
2018-07-25T10:59:03.321Z,27.82
2018-07-25T11:00:07.927Z,27.83
2018-07-25T11:01:11.366Z,27.83
2018-07-25T11:02:14.804Z,27.83
2018-07-25T11:03:18.232Z,27.83
2018-07-25T11:04:21.646Z,27.84
2018-07-25T11:05:25.037Z,27.84
2018-07-25T11:06:28.512Z,27.85
2018-07-25T11:07:32.249Z,27.85
2018-07-25T11:08:36.509Z,27.86
2018-07-25T11:09:39.985Z,27.85
2018-07-25T11:10:43.371Z,27.86
2018-07-25T11:11:46.823Z,27.87
2018-07-25T11:12:50.203Z,27.87
2018-07-25T11:13:53.622Z,27.87
2018-07-25T11:14:57.064Z,27.88
2018-07-25T11:16:00.526Z,27.88
2018-07-25T11:17:04.018Z,27.89
2018-07-25T11:18:07.599Z,27.89
2018-07-25T11:19:11.013Z,27.90
2018-07-25T11:20:14.456Z,27.89
2018-07-25T11:21:17.883Z,27.89
2018-07-25T11:22:21.375Z,27.89
2018-07-25T11:23:24.842Z,27.91
2018-07-25T11:24:28.247Z,27.91
2018-07-25T11:25:31.738Z,27.91
2018-07-25T11:26:35.188Z,27.89
2018-07-25T11:27:38.617Z,27.92
2018-07-25T11:28:42.085Z,27.91
2018-07-25T11:29:45.480Z,27.91
2018-07-25T11:30:50.034Z,27.92
2018-07-25T11:31:53.802Z,27.93
2018-07-25T11:32:57.658Z,27.91
2018-07-25T11:34:01.550Z,27.93
2018-07-25T11:35:06.599Z,27.93
2018-07-25T11:36:10.265Z,27.92
2018-07-25T11:37:13.875Z,27.93
2018-07-25T11:38:17.467Z,27.92
2018-07-25T11:39:20.940Z,27.91
2018-07-25T11:40:24.330Z,27.92
2018-07-25T11:41:28.312Z,27.92
2018-07-25T11:42:31.907Z,27.92
2018-07-25T11:43:35.654Z,27.92
2018-07-25T11:44:39.425Z,27.93
2018-07-25T11:45:42.833Z,27.93
2018-07-25T11:46:46.265Z,27.92
2018-07-25T11:47:49.848Z,27.93
2018-07-25T11:48:53.222Z,27.91
2018-07-25T11:49:56.652Z,27.93
2018-07-25T11:51:00.045Z,27.93
2018-07-25T11:52:03.476Z,27.92
2018-07-25T11:53:06.892Z,27.92
2018-07-25T11:54:10.286Z,27.93
2018-07-25T11:55:13.708Z,27.93
2018-07-25T11:56:17.161Z,27.93
2018-07-25T11:57:20.608Z,27.93
2018-07-25T11:58:24.331Z,27.93
2018-07-25T11:59:27.752Z,27.93
2018-07-25T12:00:31.158Z,27.93
2018-07-25T12:01:34.651Z,27.94
2018-07-25T12:02:38.027Z,27.93
2018-07-25T12:03:41.436Z,27.95
2018-07-25T12:04:44.923Z,27.95
2018-07-25T12:05:48.384Z,27.95
2018-07-25T12:06:51.809Z,27.96
2018-07-25T12:07:55.848Z,27.95
2018-07-25T12:08:59.281Z,27.96
2018-07-25T12:10:02.722Z,27.96
2018-07-25T12:11:07.527Z,27.96
2018-07-25T12:12:10.972Z,27.96
2018-07-25T12:13:14.397Z,27.96
2018-07-25T12:14:18.854Z,27.97
2018-07-25T12:15:22.299Z,27.97
2018-07-25T12:16:25.813Z,27.97
2018-07-25T12:17:29.304Z,27.97
2018-07-25T12:18:32.761Z,27.98
2018-07-25T12:19:36.187Z,27.99
2018-07-25T12:20:39.694Z,28.00
2018-07-25T12:21:43.126Z,27.99
2018-07-25T12:22:46.721Z,28.00
2018-07-25T12:23:50.186Z,28.00
2018-07-25T12:24:53.762Z,28.01
2018-07-25T12:25:57.247Z,28.01
2018-07-25T12:27:00.858Z,28.01
2018-07-25T12:28:04.304Z,28.01
2018-07-25T12:29:07.761Z,28.01
2018-07-25T12:30:11.209Z,28.02
2018-07-25T12:31:14.646Z,28.01
2018-07-25T12:32:18.096Z,28.02
2018-07-25T12:33:21.544Z,28.01
2018-07-25T12:35:28.564Z,28.01
2018-07-25T12:36:34.010Z,28.02
2018-07-25T12:37:37.618Z,28.03
2018-07-25T12:38:41.054Z,28.02
2018-07-25T12:39:44.720Z,28.02
2018-07-25T12:40:48.170Z,28.01
2018-07-25T12:41:51.618Z,28.01
2018-07-25T12:42:55.239Z,28.01
2018-07-25T12:43:58.659Z,28.02
2018-07-25T12:45:02.081Z,28.01
2018-07-25T12:46:05.540Z,28.03
2018-07-25T12:47:09.006Z,28.03
2018-07-25T12:48:12.491Z,28.02
2018-07-25T12:49:15.951Z,28.03
2018-07-25T12:50:19.414Z,28.03
2018-07-25T12:51:22.826Z,28.02
2018-07-25T12:52:26.291Z,28.03
2018-07-25T12:53:30.030Z,28.04
2018-07-25T12:54:33.521Z,28.03
2018-07-25T12:55:37.000Z,28.04
2018-07-25T12:56:40.515Z,28.03
2018-07-25T12:57:43.960Z,28.04
2018-07-25T12:58:47.425Z,28.04
2018-07-25T12:59:50.845Z,28.05
2018-07-25T13:00:54.256Z,28.04
2018-07-25T13:01:57.709Z,28.04
2018-07-25T13:03:01.186Z,28.04
2018-07-25T13:04:04.648Z,28.03
2018-07-25T13:05:08.177Z,28.04
2018-07-25T13:06:11.615Z,28.04
2018-07-25T13:07:15.068Z,28.04
2018-07-25T13:08:18.486Z,28.04
2018-07-25T13:09:21.883Z,28.05
2018-07-25T13:10:25.474Z,28.05
2018-07-25T13:11:29.102Z,28.06
2018-07-25T13:12:32.612Z,28.06
2018-07-25T13:13:36.043Z,28.06
2018-07-25T13:14:39.520Z,28.06
2018-07-25T13:15:43.165Z,28.06
2018-07-25T13:16:46.657Z,28.07
2018-07-25T13:17:50.102Z,28.06
2018-07-25T13:18:53.531Z,28.07
2018-07-25T13:19:57.154Z,28.08
2018-07-25T13:21:00.702Z,28.07
2018-07-25T13:22:04.231Z,28.08
2018-07-25T13:23:08.001Z,28.07
2018-07-25T13:24:11.452Z,28.07
2018-07-25T13:25:16.110Z,28.08
2018-07-25T13:26:19.696Z,28.09
2018-07-25T13:27:23.306Z,28.09
2018-07-25T13:28:26.812Z,28.08
2018-07-25T13:29:30.201Z,28.08
2018-07-25T13:30:33.845Z,28.08
2018-07-25T13:31:37.290Z,28.08
2018-07-25T13:32:40.788Z,28.09
2018-07-25T13:33:44.187Z,28.09
2018-07-25T13:34:47.621Z,28.09
2018-07-25T13:35:51.152Z,28.09
2018-07-25T13:36:54.670Z,28.10
2018-07-25T13:37:58.128Z,28.09
2018-07-25T13:39:01.599Z,28.10
2018-07-25T13:40:05.740Z,28.12
2018-07-25T13:41:09.198Z,28.12
2018-07-25T13:42:12.851Z,28.11
2018-07-25T13:43:16.297Z,28.11
2018-07-25T13:44:19.909Z,28.12
2018-07-25T13:45:23.400Z,28.12
2018-07-25T13:46:26.792Z,28.13
2018-07-25T13:47:30.393Z,28.13